createdAt,value
2022-10-22T00:01:05.006Z,4.81
2022-10-22T00:03:31.678Z,4.83
2022-10-22T00:05:58.358Z,4.87
2022-10-22T00:08:25.336Z,4.90
2022-10-22T00:10:52.939Z,4.89
2022-10-22T00:13:20.226Z,4.91
2022-10-22T00:15:47.020Z,4.94
2022-10-22T00:18:14.414Z,4.95
2022-10-22T00:20:41.065Z,4.96
2022-10-22T00:23:07.972Z,4.96
2022-10-22T00:25:36.181Z,4.94
2022-10-22T00:28:03.600Z,4.90
2022-10-22T00:30:30.669Z,4.89
2022-10-22T00:32:57.484Z,4.91
2022-10-22T00:35:24.202Z,4.92
2022-10-22T00:37:51.022Z,4.89
2022-10-22T00:40:17.728Z,4.83
2022-10-22T00:42:44.590Z,4.75
2022-10-22T00:45:16.618Z,4.71
2022-10-22T00:47:48.995Z,4.69
2022-10-22T00:50:24.990Z,4.69
2022-10-22T00:52:51.748Z,4.77
2022-10-22T00:55:19.537Z,4.82
2022-10-22T00:57:46.969Z,4.84
2022-10-22T01:00:14.034Z,4.88
2022-10-22T01:02:40.906Z,4.91
2022-10-22T01:05:08.043Z,4.92
2022-10-22T01:07:39.812Z,4.93
2022-10-22T01:10:18.926Z,4.95
2022-10-22T01:12:59.852Z,4.96
2022-10-22T01:15:29.395Z,4.94
2022-10-22T01:18:12.288Z,4.90
2022-10-22T01:20:47.289Z,4.91
2022-10-22T01:23:13.913Z,4.93
2022-10-22T01:26:04.392Z,4.92
2022-10-22T01:28:37.157Z,4.96
2022-10-22T01:31:05.752Z,4.98
2022-10-22T01:33:32.971Z,4.94
2022-10-22T01:36:00.170Z,4.95
2022-10-22T01:38:27.190Z,4.94
2022-10-22T01:40:54.734Z,4.94
2022-10-22T01:43:21.701Z,4.94
2022-10-22T01:45:56.562Z,4.93
2022-10-22T01:48:42.157Z,4.88
2022-10-22T01:51:32.171Z,4.90
2022-10-22T01:53:58.775Z,4.93
2022-10-22T01:56:37.378Z,4.95
2022-10-22T01:59:08.430Z,5.00
2022-10-22T02:01:37.978Z,5.07
2022-10-22T02:04:04.565Z,5.06
2022-10-22T02:06:32.744Z,4.99
2022-10-22T02:09:02.972Z,4.98
2022-10-22T02:11:30.231Z,5.04
2022-10-22T02:13:58.795Z,5.01
2022-10-22T02:16:34.630Z,5.00
2022-10-22T02:19:04.704Z,4.98
2022-10-22T02:21:31.836Z,4.91
2022-10-22T02:23:58.737Z,4.92
2022-10-22T02:26:30.585Z,4.95
2022-10-22T02:29:03.428Z,5.00
2022-10-22T02:31:32.331Z,5.04
2022-10-22T02:34:01.302Z,5.09
2022-10-22T02:36:28.672Z,5.10
2022-10-22T02:38:55.664Z,5.08
2022-10-22T02:41:22.976Z,5.06
2022-10-22T02:43:50.810Z,5.06
2022-10-22T02:46:17.479Z,5.06
2022-10-22T02:48:44.165Z,5.08
2022-10-22T02:51:10.874Z,5.06
2022-10-22T02:53:37.482Z,5.06
2022-10-22T02:56:04.637Z,5.05
2022-10-22T02:58:31.294Z,5.04
2022-10-22T03:00:58.041Z,5.02
2022-10-22T03:03:24.772Z,5.04
2022-10-22T03:05:51.713Z,5.04
2022-10-22T03:08:18.404Z,5.03
2022-10-22T03:10:45.182Z,4.99
2022-10-22T03:13:12.018Z,5.03
2022-10-22T03:15:38.839Z,5.02
2022-10-22T03:18:05.815Z,4.97
2022-10-22T03:20:32.465Z,4.96
2022-10-22T03:22:59.245Z,4.94
2022-10-22T03:25:27.371Z,4.97
2022-10-22T03:27:56.719Z,5.02
2022-10-22T03:30:23.384Z,5.05
2022-10-22T03:32:50.041Z,5.00
2022-10-22T03:35:16.806Z,4.98
2022-10-22T03:37:43.846Z,4.96
2022-10-22T03:40:11.600Z,4.97
2022-10-22T03:42:39.302Z,4.99
2022-10-22T03:45:06.410Z,5.04
2022-10-22T03:47:33.131Z,5.05
2022-10-22T03:49:59.844Z,5.08
2022-10-22T03:52:26.516Z,5.09
2022-10-22T03:54:53.233Z,5.07
2022-10-22T03:57:19.983Z,5.11
2022-10-22T03:59:46.845Z,5.09
2022-10-22T04:02:14.227Z,5.09
2022-10-22T04:04:40.878Z,5.09
2022-10-22T04:07:08.141Z,5.04
2022-10-22T04:09:35.304Z,5.04
2022-10-22T04:12:02.290Z,5.03
2022-10-22T04:14:29.068Z,5.08
2022-10-22T04:16:55.699Z,5.10
2022-10-22T04:19:22.344Z,5.09
2022-10-22T04:21:49.141Z,5.06
2022-10-22T04:24:15.960Z,5.07
2022-10-22T04:26:43.013Z,5.08
2022-10-22T04:29:13.384Z,5.07
2022-10-22T04:31:42.892Z,5.07
2022-10-22T04:34:09.753Z,5.10
2022-10-22T04:36:36.341Z,5.12
2022-10-22T04:39:03.910Z,5.10
2022-10-22T04:41:35.062Z,5.03
2022-10-22T04:44:02.544Z,4.97
2022-10-22T04:46:30.390Z,4.98
2022-10-22T04:48:57.185Z,5.03
2022-10-22T04:51:24.893Z,5.06
2022-10-22T04:53:51.636Z,5.10
2022-10-22T04:56:20.764Z,5.09
2022-10-22T04:58:48.878Z,5.04
2022-10-22T05:01:17.333Z,5.03
2022-10-22T05:03:44.715Z,5.04
2022-10-22T05:08:43.621Z,5.05
2022-10-22T05:11:20.261Z,5.04
2022-10-22T05:13:47.153Z,5.00
2022-10-22T05:16:14.216Z,5.00
2022-10-22T05:18:42.045Z,5.03
2022-10-22T05:21:10.609Z,4.98
2022-10-22T05:23:37.530Z,5.01
2022-10-22T05:26:08.272Z,5.03
2022-10-22T05:28:35.630Z,5.04
2022-10-22T05:31:02.595Z,5.07
2022-10-22T05:33:29.808Z,5.10
2022-10-22T05:35:56.896Z,5.16
2022-10-22T05:38:24.036Z,5.24
2022-10-22T05:41:20.045Z,5.25
2022-10-22T05:43:47.114Z,5.25
2022-10-22T05:46:19.835Z,5.26
2022-10-22T05:48:51.376Z,5.25
2022-10-22T05:51:18.612Z,5.24
2022-10-22T05:53:45.288Z,5.22
2022-10-22T05:56:13.327Z,5.25
2022-10-22T05:58:40.130Z,5.26
2022-10-22T06:01:12.985Z,5.32
2022-10-22T06:03:39.951Z,5.33
2022-10-22T06:06:26.885Z,5.33
2022-10-22T06:08:54.733Z,5.37
2022-10-22T06:11:22.480Z,5.41
2022-10-22T06:13:50.093Z,5.45
2022-10-22T06:16:16.937Z,5.47
2022-10-22T06:18:43.816Z,5.53
2022-10-22T06:21:11.729Z,5.51
2022-10-22T06:23:41.222Z,5.49
2022-10-22T06:26:08.446Z,5.45
2022-10-22T06:28:35.492Z,5.44
2022-10-22T06:31:02.738Z,5.38
2022-10-22T06:33:29.997Z,5.32
2022-10-22T06:36:06.751Z,5.29
2022-10-22T06:38:34.308Z,5.30
2022-10-22T06:41:08.545Z,5.34
2022-10-22T06:43:35.806Z,5.32
2022-10-22T06:46:03.717Z,5.33
2022-10-22T06:48:30.329Z,5.35
2022-10-22T06:50:57.054Z,5.39
2022-10-22T06:53:23.928Z,5.43
2022-10-22T06:55:50.578Z,5.39
2022-10-22T06:58:17.154Z,5.44
2022-10-22T07:00:43.742Z,5.46
2022-10-22T07:03:12.844Z,5.56
2022-10-22T07:05:40.017Z,5.59
2022-10-22T07:08:06.616Z,5.62
2022-10-22T07:10:33.154Z,5.64
2022-10-22T07:12:59.813Z,5.71
2022-10-22T07:15:26.390Z,5.72
2022-10-22T07:17:52.954Z,5.72
2022-10-22T07:20:21.281Z,5.72
2022-10-22T07:22:47.851Z,5.68
2022-10-22T07:25:14.491Z,5.70
2022-10-22T07:27:41.387Z,5.74
2022-10-22T07:30:08.542Z,5.77
2022-10-22T07:32:35.091Z,5.80
2022-10-22T07:35:01.710Z,5.78
2022-10-22T07:37:28.462Z,5.73
2022-10-22T07:39:55.033Z,5.70
2022-10-22T07:42:21.761Z,5.76
2022-10-22T07:44:48.333Z,5.79
2022-10-22T07:47:14.909Z,5.77
2022-10-22T07:49:41.618Z,5.72
2022-10-22T07:52:08.377Z,5.70
2022-10-22T07:54:35.341Z,5.71
2022-10-22T07:57:02.154Z,5.75
2022-10-22T07:59:28.737Z,5.73
2022-10-22T08:01:55.447Z,5.85
2022-10-22T08:04:22.198Z,5.84
2022-10-22T08:06:48.910Z,5.87
2022-10-22T08:09:15.679Z,5.96
2022-10-22T08:11:42.546Z,5.99
2022-10-22T08:14:09.204Z,6.03
2022-10-22T08:16:35.897Z,6.04
2022-10-22T08:19:02.564Z,6.09
2022-10-22T08:21:29.292Z,6.08
2022-10-22T08:23:55.975Z,6.01
2022-10-22T08:26:22.624Z,6.06
2022-10-22T08:28:49.253Z,6.05
2022-10-22T08:31:15.881Z,5.95
2022-10-22T08:33:42.832Z,5.97
2022-10-22T08:36:09.569Z,5.88
2022-10-22T08:38:36.226Z,5.93
2022-10-22T08:41:13.426Z,6.00
2022-10-22T08:43:48.907Z,6.06
2022-10-22T08:46:15.433Z,6.14
2022-10-22T08:48:48.112Z,6.10
2022-10-22T08:51:19.194Z,6.07
2022-10-22T08:53:46.009Z,6.05
2022-10-22T08:56:14.224Z,5.99
2022-10-22T08:58:47.864Z,5.96
2022-10-22T09:01:18.720Z,5.93
2022-10-22T09:03:56.133Z,5.94
2022-10-22T09:06:25.047Z,5.98
2022-10-22T09:08:52.786Z,6.00
2022-10-22T09:11:45.521Z,6.08
2022-10-22T09:14:16.799Z,6.11
2022-10-22T09:17:01.685Z,6.14
2022-10-22T09:19:42.321Z,6.11
2022-10-22T09:22:11.784Z,6.13
2022-10-22T09:24:48.737Z,6.07
2022-10-22T09:27:17.149Z,6.04
2022-10-22T09:29:44.646Z,6.05
2022-10-22T09:32:11.250Z,6.07
2022-10-22T09:34:37.997Z,6.01
2022-10-22T09:37:06.468Z,6.04
2022-10-22T09:39:34.584Z,6.09
2022-10-22T09:42:01.320Z,6.19
2022-10-22T09:44:27.944Z,6.23
2022-10-22T09:46:54.602Z,6.30
2022-10-22T09:49:22.794Z,6.36
2022-10-22T09:51:52.351Z,6.40
2022-10-22T09:54:38.429Z,6.41
2022-10-22T09:57:05.109Z,6.36
2022-10-22T09:59:51.502Z,6.37
2022-10-22T10:02:37.999Z,6.39
2022-10-22T10:05:06.475Z,6.45
2022-10-22T10:07:34.092Z,6.55
2022-10-22T10:10:00.669Z,6.51
2022-10-22T10:12:27.327Z,6.58
2022-10-22T10:14:56.621Z,6.53
2022-10-22T10:17:28.868Z,6.56
2022-10-22T10:20:14.791Z,6.70
2022-10-22T10:22:44.640Z,6.83
2022-10-22T10:25:17.610Z,6.89
2022-10-22T10:27:47.900Z,6.72
2022-10-22T10:30:19.382Z,6.75
2022-10-22T10:33:12.315Z,6.79
2022-10-22T10:35:59.265Z,6.91
2022-10-22T10:38:28.821Z,6.86
2022-10-22T10:40:59.030Z,6.78
2022-10-22T10:43:33.790Z,6.80
2022-10-22T10:46:26.666Z,6.95
2022-10-22T10:48:59.411Z,6.96
2022-10-22T10:51:37.604Z,6.95
2022-10-22T10:54:10.521Z,6.89
2022-10-22T10:56:41.988Z,6.91
2022-10-22T10:59:18.840Z,6.92
2022-10-22T11:02:04.049Z,6.89
2022-10-22T11:04:30.667Z,6.89
2022-10-22T11:07:11.074Z,6.86
2022-10-22T11:09:58.185Z,6.84
2022-10-22T11:12:31.605Z,6.86
2022-10-22T11:15:15.381Z,6.96
2022-10-22T11:17:44.998Z,7.09
2022-10-22T11:20:14.621Z,7.20
2022-10-22T11:23:13.507Z,7.24
2022-10-22T11:25:39.618Z,7.04
2022-10-22T11:28:12.081Z,6.96
2022-10-22T11:30:40.674Z,6.93
2022-10-22T11:33:10.750Z,6.92
2022-10-22T11:35:45.230Z,6.93
2022-10-22T11:38:14.865Z,6.88
2022-10-22T11:40:47.422Z,6.87
2022-10-22T11:43:27.525Z,6.72
2022-10-22T11:45:58.478Z,6.73
2022-10-22T11:48:28.336Z,6.68
2022-10-22T11:51:02.271Z,6.65
2022-10-22T11:53:39.129Z,6.66
2022-10-22T11:56:10.790Z,6.71
2022-10-22T11:58:39.276Z,6.72
2022-10-22T12:01:08.648Z,6.74
2022-10-22T12:03:35.341Z,6.72
2022-10-22T12:06:05.041Z,6.68
2022-10-22T12:08:32.773Z,6.69
2022-10-22T12:11:13.604Z,6.73
2022-10-22T12:13:58.769Z,6.77
2022-10-22T12:16:32.364Z,6.79
2022-10-22T12:19:10.500Z,6.85
2022-10-22T12:21:41.703Z,6.91
2022-10-22T12:24:13.084Z,6.93
2022-10-22T12:26:39.739Z,6.95
2022-10-22T12:29:09.902Z,6.92
2022-10-22T12:31:37.557Z,6.95
2022-10-22T12:34:04.780Z,6.95
2022-10-22T12:36:33.288Z,6.96
2022-10-22T12:39:00.373Z,6.92
2022-10-22T12:41:34.472Z,6.90
2022-10-22T12:44:01.984Z,6.88
2022-10-22T12:46:30.430Z,6.81
2022-10-22T12:49:00.083Z,6.71
2022-10-22T12:51:26.772Z,6.72
2022-10-22T12:53:54.452Z,6.64
2022-10-22T12:56:23.031Z,6.51
2022-10-22T12:58:52.893Z,6.47
2022-10-22T13:01:19.665Z,6.41
2022-10-22T13:03:51.188Z,6.36
2022-10-22T13:06:20.919Z,6.35
2022-10-22T13:09:16.765Z,6.35
2022-10-22T13:12:04.750Z,6.33
2022-10-22T13:14:33.185Z,6.36
2022-10-22T13:17:16.484Z,6.38
2022-10-22T13:19:45.581Z,6.39
2022-10-22T13:22:29.047Z,6.36
2022-10-22T13:24:59.975Z,6.31
2022-10-22T13:27:28.134Z,6.28
2022-10-22T13:29:55.428Z,6.24
2022-10-22T13:32:33.032Z,6.20
2022-10-22T13:35:03.064Z,6.18
2022-10-22T13:37:32.450Z,6.16
2022-10-22T13:39:59.112Z,6.15
2022-10-22T13:42:25.711Z,6.13
2022-10-22T13:44:52.269Z,6.11
2022-10-22T13:47:25.606Z,6.12
2022-10-22T13:49:54.176Z,6.13
2022-10-22T13:52:40.691Z,6.12
2022-10-22T13:55:25.649Z,6.09
2022-10-22T13:58:01.325Z,6.08
2022-10-22T14:00:28.023Z,6.11
2022-10-22T14:02:57.129Z,6.11
2022-10-22T14:05:23.778Z,6.09
2022-10-22T14:07:50.372Z,6.07
2022-10-22T14:10:21.632Z,6.10
2022-10-22T14:12:52.382Z,6.10
2022-10-22T14:15:24.178Z,6.08
2022-10-22T14:18:00.728Z,6.08
2022-10-22T14:20:31.217Z,6.08
2022-10-22T14:23:02.373Z,6.06
2022-10-22T14:25:34.909Z,6.03
2022-10-22T14:28:01.496Z,6.00
2022-10-22T14:30:30.232Z,5.96
2022-10-22T14:32:57.807Z,5.91
2022-10-22T14:35:24.803Z,5.91
2022-10-22T14:37:51.745Z,5.88
2022-10-22T14:40:19.560Z,5.86
2022-10-22T14:42:46.997Z,5.84
2022-10-22T14:45:23.756Z,5.86
2022-10-22T14:47:51.247Z,5.84
2022-10-22T14:50:18.589Z,5.81
2022-10-22T14:52:45.191Z,5.83
2022-10-22T14:55:12.800Z,5.79
2022-10-22T14:57:39.795Z,5.78
2022-10-22T15:00:08.831Z,5.80
2022-10-22T15:02:35.593Z,5.84
2022-10-22T15:05:02.250Z,5.82
2022-10-22T15:07:29.965Z,5.83
2022-10-22T15:09:56.550Z,5.83
2022-10-22T15:12:23.480Z,5.83
2022-10-22T15:14:50.220Z,5.82
2022-10-22T15:17:17.734Z,5.79
2022-10-22T15:19:44.709Z,5.76
2022-10-22T15:22:12.162Z,5.79
2022-10-22T15:24:38.779Z,5.76
2022-10-22T15:27:05.418Z,5.73
2022-10-22T15:29:35.368Z,5.72
2022-10-22T15:32:02.066Z,5.70
2022-10-22T15:34:34.509Z,5.73
2022-10-22T15:37:02.320Z,5.76
2022-10-22T15:39:29.279Z,5.76
2022-10-22T15:41:55.958Z,5.75
2022-10-22T15:44:31.679Z,5.78
2022-10-22T15:46:58.572Z,5.81
2022-10-22T15:49:26.219Z,5.82
2022-10-22T15:51:53.209Z,5.81
2022-10-22T15:54:24.469Z,5.79
2022-10-22T15:56:51.259Z,5.81
2022-10-22T15:59:18.146Z,5.81
2022-10-22T16:01:44.956Z,5.80
2022-10-22T16:04:11.540Z,5.77
2022-10-22T16:06:39.712Z,5.78
2022-10-22T16:09:08.010Z,5.80
2022-10-22T16:11:34.818Z,5.82
2022-10-22T16:14:01.420Z,5.77
2022-10-22T16:16:29.324Z,5.81
2022-10-22T16:18:56.208Z,5.77
2022-10-22T16:21:23.659Z,5.74
2022-10-22T16:23:50.595Z,5.79
2022-10-22T16:26:18.022Z,5.77
2022-10-22T16:28:45.665Z,5.69
2022-10-22T16:31:13.388Z,5.69
2022-10-22T16:33:42.932Z,5.68
2022-10-22T16:36:14.454Z,5.71
2022-10-22T16:38:41.070Z,5.71
2022-10-22T16:41:15.409Z,5.71
2022-10-22T16:43:42.937Z,5.70
2022-10-22T16:46:09.536Z,5.70
2022-10-22T16:48:40.409Z,5.71
2022-10-22T16:51:08.491Z,5.74
2022-10-22T16:56:10.704Z,5.75
2022-10-22T16:58:37.738Z,5.77
2022-10-22T17:01:08.237Z,5.76
2022-10-22T17:03:35.150Z,5.78
2022-10-22T17:06:03.842Z,5.73
2022-10-22T17:08:31.092Z,5.69
2022-10-22T17:10:57.703Z,5.71
2022-10-22T17:13:24.346Z,5.67
2022-10-22T17:15:50.905Z,5.68
2022-10-22T17:18:17.491Z,5.68
2022-10-22T17:20:44.131Z,5.65
2022-10-22T17:23:10.759Z,5.66
2022-10-22T17:25:42.828Z,5.63
2022-10-22T17:28:10.379Z,5.60
2022-10-22T17:30:39.079Z,5.58
2022-10-22T17:33:06.249Z,5.63
2022-10-22T17:35:33.535Z,5.56
2022-10-22T17:38:00.151Z,5.52
2022-10-22T17:40:27.077Z,5.57
2022-10-22T17:42:53.817Z,5.55
2022-10-22T17:45:20.413Z,5.56
2022-10-22T17:47:47.008Z,5.51
2022-10-22T17:50:13.572Z,5.52
2022-10-22T17:52:40.529Z,5.53
2022-10-22T17:55:07.530Z,5.51
2022-10-22T17:57:34.168Z,5.52
2022-10-22T18:00:00.878Z,5.50
2022-10-22T18:02:27.436Z,5.51
2022-10-22T18:04:54.016Z,5.51
2022-10-22T18:07:21.113Z,5.50
2022-10-22T18:09:47.915Z,5.53
2022-10-22T18:12:14.828Z,5.45
2022-10-22T18:14:41.419Z,5.47
2022-10-22T18:17:08.315Z,5.47
2022-10-22T18:19:34.951Z,5.49
2022-10-22T18:22:01.783Z,5.51
2022-10-22T18:24:28.371Z,5.48
2022-10-22T18:26:54.929Z,5.42
2022-10-22T18:29:21.649Z,5.43
2022-10-22T18:31:48.722Z,5.46
2022-10-22T18:34:17.611Z,5.49
2022-10-22T18:36:46.968Z,5.48
2022-10-22T18:39:16.706Z,5.48
2022-10-22T18:41:43.634Z,5.49
2022-10-22T18:44:12.898Z,5.48
2022-10-22T18:46:40.218Z,5.44
2022-10-22T18:49:11.688Z,5.48
2022-10-22T18:51:38.256Z,5.51
2022-10-22T18:54:21.386Z,5.49
2022-10-22T18:56:52.013Z,5.49
2022-10-22T18:59:23.276Z,5.48
2022-10-22T19:01:51.325Z,5.48
2022-10-22T19:04:18.061Z,5.46
2022-10-22T19:06:45.936Z,5.47
2022-10-22T19:09:13.913Z,5.47
2022-10-22T19:11:40.562Z,5.47
2022-10-22T19:14:07.211Z,5.46
2022-10-22T19:16:35.197Z,5.44
2022-10-22T19:19:05.973Z,5.40
2022-10-22T19:21:32.649Z,5.39
2022-10-22T19:23:59.877Z,5.39
2022-10-22T19:26:27.688Z,5.41
2022-10-22T19:28:54.752Z,5.39
2022-10-22T19:31:22.361Z,5.38
2022-10-22T19:33:48.986Z,5.35
2022-10-22T19:36:17.081Z,5.36
2022-10-22T19:38:45.240Z,5.37
2022-10-22T19:41:13.338Z,5.36
2022-10-22T19:43:43.615Z,5.31
2022-10-22T19:46:10.673Z,5.31
2022-10-22T19:48:37.832Z,5.29
2022-10-22T19:51:08.535Z,5.27
2022-10-22T19:53:36.387Z,5.27
2022-10-22T19:56:04.690Z,5.31
2022-10-22T19:58:31.349Z,5.27
2022-10-22T20:01:02.718Z,5.29
2022-10-22T20:03:29.421Z,5.30
2022-10-22T20:05:56.023Z,5.29
2022-10-22T20:08:22.781Z,5.25
2022-10-22T20:10:49.427Z,5.23
2022-10-22T20:13:16.395Z,5.18
2022-10-22T20:15:42.989Z,5.22
2022-10-22T20:18:10.180Z,5.24
2022-10-22T20:20:40.308Z,5.29
2022-10-22T20:23:08.764Z,5.27
2022-10-22T20:25:35.717Z,5.26
2022-10-22T20:28:04.297Z,5.26
2022-10-22T20:30:39.851Z,5.25
2022-10-22T20:33:06.911Z,5.25
2022-10-22T20:35:38.278Z,5.24
2022-10-22T20:38:08.483Z,5.22
2022-10-22T20:41:00.557Z,5.23
2022-10-22T20:44:13.885Z,5.22
2022-10-22T20:46:48.551Z,5.20
2022-10-22T20:49:43.429Z,5.19
2022-10-22T20:52:35.103Z,5.19
2022-10-22T20:55:24.067Z,5.21
2022-10-22T20:57:50.693Z,5.23
2022-10-22T21:00:17.656Z,5.21
2022-10-22T21:02:44.497Z,5.22
2022-10-22T21:05:11.239Z,5.20
2022-10-22T21:07:37.856Z,5.20
2022-10-22T21:10:04.659Z,5.20
2022-10-22T21:12:31.274Z,5.24
2022-10-22T21:14:57.868Z,5.22
2022-10-22T21:17:24.437Z,5.22
2022-10-22T21:19:51.027Z,5.22
2022-10-22T21:22:17.652Z,5.21
2022-10-22T21:24:44.214Z,5.22
2022-10-22T21:27:10.869Z,5.23
2022-10-22T21:29:37.501Z,5.20
2022-10-22T21:32:04.205Z,5.21
2022-10-22T21:34:33.256Z,5.15
2022-10-22T21:37:03.528Z,5.19
2022-10-22T21:39:30.429Z,5.21
2022-10-22T21:41:57.064Z,5.24
2022-10-22T21:44:23.773Z,5.22
2022-10-22T21:46:50.516Z,5.18
2022-10-22T21:49:17.135Z,5.20
2022-10-22T21:51:43.860Z,5.19
2022-10-22T21:54:12.657Z,5.17
2022-10-22T21:56:39.472Z,5.20
2022-10-22T21:59:06.499Z,5.18
2022-10-22T22:01:33.435Z,5.16
2022-10-22T22:04:00.324Z,5.16
2022-10-22T22:06:30.865Z,5.19
2022-10-22T22:08:59.982Z,5.15
2022-10-22T22:11:27.348Z,5.13
2022-10-22T22:13:54.674Z,5.15
2022-10-22T22:16:28.265Z,5.18
2022-10-22T22:18:56.802Z,5.18
2022-10-22T22:21:23.539Z,5.20
2022-10-22T22:23:50.688Z,5.15
2022-10-22T22:26:24.052Z,5.16
2022-10-22T22:28:53.565Z,5.14
2022-10-22T22:31:28.319Z,5.16
2022-10-22T22:33:59.271Z,5.12
2022-10-22T22:36:25.903Z,5.16
2022-10-22T22:38:56.462Z,5.20
2022-10-22T22:41:23.344Z,5.15
2022-10-22T22:43:50.050Z,5.08
2022-10-22T22:46:16.756Z,5.14
2022-10-22T22:48:43.376Z,5.11
2022-10-22T22:51:10.403Z,5.11
2022-10-22T22:53:36.980Z,5.14
2022-10-22T22:56:14.573Z,5.08
2022-10-22T22:58:41.572Z,5.04
2022-10-22T23:01:14.352Z,5.07
2022-10-22T23:03:41.412Z,5.05
2022-10-22T23:06:08.112Z,5.02
2022-10-22T23:08:35.170Z,5.03
2022-10-22T23:11:03.347Z,5.04
2022-10-22T23:13:30.791Z,5.01
2022-10-22T23:16:00.289Z,5.02
2022-10-22T23:18:42.890Z,5.04
2022-10-22T23:21:20.614Z,5.02
2022-10-22T23:23:51.599Z,5.01
2022-10-22T23:26:19.330Z,5.05
2022-10-22T23:28:46.484Z,5.01
2022-10-22T23:31:14.081Z,5.01
2022-10-22T23:33:41.038Z,5.00
2022-10-22T23:36:08.100Z,5.04
2022-10-22T23:38:35.980Z,5.05
2022-10-22T23:41:02.743Z,5.03
2022-10-22T23:43:29.800Z,5.00
2022-10-22T23:45:56.402Z,4.99
2022-10-22T23:48:23.108Z,5.03
2022-10-22T23:50:50.241Z,5.04
2022-10-22T23:53:16.917Z,5.04
2022-10-22T23:55:44.181Z,5.01
2022-10-22T23:58:11.311Z,4.98
